sensor_id;sensor_type;location;lat;lon;timestamp;pressure;altitude;pressure_sealevel;temperature;humidity
71774;BME280;59607;52.130;5.430;2023-02-21T00:00:03;102129.34;;;8.59;100.00
71774;BME280;59607;52.130;5.430;2023-02-21T00:02:49;102134.47;;;8.60;100.00
71774;BME280;59607;52.130;5.430;2023-02-21T00:05:35;102135.44;;;8.59;100.00
71774;BME280;59607;52.130;5.430;2023-02-21T00:08:22;102137.19;;;8.59;100.00
71774;BME280;59607;52.130;5.430;2023-02-21T00:11:10;102145.03;;;8.59;100.00
71774;BME280;59607;52.130;5.430;2023-02-21T00:13:55;102134.59;;;8.59;100.00
71774;BME280;59607;52.130;5.430;2023-02-21T00:16:40;102132.81;;;8.59;100.00
71774;BME280;59607;52.130;5.430;2023-02-21T00:19:29;102129.47;;;8.57;100.00
71774;BME280;59607;52.130;5.430;2023-02-21T00:22:17;102133.88;;;8.57;100.00
71774;BME280;59607;52.130;5.430;2023-02-21T00:25:06;102136.47;;;8.57;100.00
71774;BME280;59607;52.130;5.430;2023-02-21T00:27:54;102140.06;;;8.56;100.00
71774;BME280;59607;52.130;5.430;2023-02-21T00:30:40;102145.16;;;8.57;100.00
71774;BME280;59607;52.130;5.430;2023-02-21T00:33:26;102142.66;;;8.56;100.00
71774;BME280;59607;52.130;5.430;2023-02-21T00:36:20;102142.44;;;8.59;100.00
71774;BME280;59607;52.130;5.430;2023-02-21T00:39:06;102136.34;;;8.58;100.00
71774;BME280;59607;52.130;5.430;2023-02-21T00:41:57;102136.47;;;8.57;100.00
71774;BME280;59607;52.130;5.430;2023-02-21T00:44:47;102141.72;;;8.57;100.00
71774;BME280;59607;52.130;5.430;2023-02-21T00:47:34;102139.81;;;8.59;100.00
71774;BME280;59607;52.130;5.430;2023-02-21T00:50:27;102135.53;;;8.58;100.00
71774;BME280;59607;52.130;5.430;2023-02-21T00:53:13;102134.69;;;8.57;100.00
71774;BME280;59607;52.130;5.430;2023-02-21T00:56:01;102131.38;;;8.55;100.00
71774;BME280;59607;52.130;5.430;2023-02-21T00:58:52;102134.81;;;8.56;100.00
71774;BME280;59607;52.130;5.430;2023-02-21T01:01:37;102125.31;;;8.55;100.00
71774;BME280;59607;52.130;5.430;2023-02-21T01:04:22;102119.22;;;8.54;100.00
71774;BME280;59607;52.130;5.430;2023-02-21T01:07:08;102113.91;;;8.56;100.00
71774;BME280;59607;52.130;5.430;2023-02-21T01:09:58;102116.59;;;8.54;100.00
71774;BME280;59607;52.130;5.430;2023-02-21T01:12:44;102108.66;;;8.56;100.00
71774;BME280;59607;52.130;5.430;2023-02-21T01:15:33;102117.56;;;8.53;100.00
71774;BME280;59607;52.130;5.430;2023-02-21T01:18:19;102115.75;;;8.54;100.00
71774;BME280;59607;52.130;5.430;2023-02-21T01:21:04;102108.66;;;8.56;100.00
71774;BME280;59607;52.130;5.430;2023-02-21T01:23:52;102119.13;;;8.56;100.00
71774;BME280;59607;52.130;5.430;2023-02-21T01:26:37;102118.16;;;8.57;100.00
71774;BME280;59607;52.130;5.430;2023-02-21T01:29:22;102099.16;;;8.55;100.00
71774;BME280;59607;52.130;5.430;2023-02-21T01:32:12;102101.03;;;8.52;100.00
71774;BME280;59607;52.130;5.430;2023-02-21T01:34:56;102098.53;;;8.51;100.00
71774;BME280;59607;52.130;5.430;2023-02-21T01:37:41;102107.22;;;8.51;100.00
71774;BME280;59607;52.130;5.430;2023-02-21T01:40:29;102101.78;;;8.55;100.00
71774;BME280;59607;52.130;5.430;2023-02-21T01:43:21;102100.91;;;8.54;100.00
71774;BME280;59607;52.130;5.430;2023-02-21T01:46:14;102105.09;;;8.57;100.00
71774;BME280;59607;52.130;5.430;2023-02-21T01:49:13;102102.47;;;8.57;100.00
71774;BME280;59607;52.130;5.430;2023-02-21T01:52:03;102097.38;;;8.55;100.00
71774;BME280;59607;52.130;5.430;2023-02-21T01:54:51;102103.31;;;8.57;100.00
71774;BME280;59607;52.130;5.430;2023-02-21T01:57:41;102098.94;;;8.58;100.00
71774;BME280;59607;52.130;5.430;2023-02-21T02:00:32;102096.19;;;8.59;100.00
71774;BME280;59607;52.130;5.430;2023-02-21T02:03:24;102088.47;;;8.58;100.00
71774;BME280;59607;52.130;5.430;2023-02-21T02:06:15;102086.66;;;8.58;100.00
71774;BME280;59607;52.130;5.430;2023-02-21T02:09:20;102095.25;;;8.60;100.00
71774;BME280;59607;52.130;5.430;2023-02-21T02:15:29;102090.00;;;8.60;100.00
71774;BME280;59607;52.130;5.430;2023-02-21T02:26:49;102088.94;;;8.63;100.00
71774;BME280;59607;52.130;5.430;2023-02-21T02:29:44;102087.16;;;8.63;100.00
71774;BME280;59607;52.130;5.430;2023-02-21T02:35:28;102080.97;;;8.64;100.00
71774;BME280;59607;52.130;5.430;2023-02-21T02:38:22;102077.28;;;8.67;100.00
71774;BME280;59607;52.130;5.430;2023-02-21T02:41:18;102079.06;;;8.67;100.00
71774;BME280;59607;52.130;5.430;2023-02-21T02:43:54;102072.78;;;8.69;100.00
71774;BME280;59607;52.130;5.430;2023-02-21T02:46:28;102080.75;;;8.68;100.00
71774;BME280;59607;52.130;5.430;2023-02-21T02:52:02;102096.31;;;8.69;100.00
71774;BME280;59607;52.130;5.430;2023-02-21T02:54:30;102088.59;;;8.68;100.00
71774;BME280;59607;52.130;5.430;2023-02-21T02:57:02;102093.72;;;8.69;100.00
71774;BME280;59607;52.130;5.430;2023-02-21T02:59:49;102094.63;;;8.68;100.00
71774;BME280;59607;52.130;5.430;2023-02-21T03:03:06;102093.94;;;8.66;100.00
71774;BME280;59607;52.130;5.430;2023-02-21T03:05:47;102086.91;;;8.67;100.00
71774;BME280;59607;52.130;5.430;2023-02-21T03:08:52;102081.81;;;8.65;100.00
71774;BME280;59607;52.130;5.430;2023-02-21T03:11:27;102074.78;;;8.66;100.00
71774;BME280;59607;52.130;5.430;2023-02-21T03:14:13;102071.47;;;8.63;100.00
71774;BME280;59607;52.130;5.430;2023-02-21T03:16:55;102074.78;;;8.66;100.00
71774;BME280;59607;52.130;5.430;2023-02-21T03:19:35;102071.22;;;8.67;100.00
71774;BME280;59607;52.130;5.430;2023-02-21T03:22:17;102074.91;;;8.64;100.00
71774;BME280;59607;52.130;5.430;2023-02-21T03:24:49;102074.19;;;8.62;100.00
71774;BME280;59607;52.130;5.430;2023-02-21T03:27:24;102077.78;;;8.61;100.00
71774;BME280;59607;52.130;5.430;2023-02-21T03:30:00;102072.53;;;8.61;100.00
71774;BME280;59607;52.130;5.430;2023-02-21T03:32:35;102065.63;;;8.60;100.00
71774;BME280;59607;52.130;5.430;2023-02-21T03:35:05;102079.44;;;8.62;100.00
71774;BME280;59607;52.130;5.430;2023-02-21T03:37:44;102073.34;;;8.61;100.00
71774;BME280;59607;52.130;5.430;2023-02-21T03:40:19;102072.66;;;8.59;100.00
71774;BME280;59607;52.130;5.430;2023-02-21T03:42:51;102071.94;;;8.57;100.00
71774;BME280;59607;52.130;5.430;2023-02-21T03:45:29;102075.28;;;8.59;100.00
71774;BME280;59607;52.130;5.430;2023-02-21T03:47:59;102074.44;;;8.59;100.00
71774;BME280;59607;52.130;5.430;2023-02-21T03:50:29;102069.22;;;8.59;100.00
71774;BME280;59607;52.130;5.430;2023-02-21T03:52:55;102063.00;;;8.60;100.00
71774;BME280;59607;52.130;5.430;2023-02-21T03:55:22;102062.09;;;8.61;100.00
71774;BME280;59607;52.130;5.430;2023-02-21T03:57:48;102070.75;;;8.61;100.00
71774;BME280;59607;52.130;5.430;2023-02-21T04:00:18;102067.31;;;8.61;100.00
71774;BME280;59607;52.130;5.430;2023-02-21T04:02:46;102060.41;;;8.60;100.00
71774;BME280;59607;52.130;5.430;2023-02-21T04:05:18;102051.63;;;8.61;100.00
71774;BME280;59607;52.130;5.430;2023-02-21T04:07:44;102063.13;;;8.58;100.00
71774;BME280;59607;52.130;5.430;2023-02-21T04:10:18;102066.59;;;8.59;100.00
71774;BME280;59607;52.130;5.430;2023-02-21T04:12:44;102077.78;;;8.61;100.00
71774;BME280;59607;52.130;5.430;2023-02-21T04:15:11;102067.31;;;8.61;100.00
71774;BME280;59607;52.130;5.430;2023-02-21T04:17:43;102071.56;;;8.62;100.00
71774;BME280;59607;52.130;5.430;2023-02-21T04:20:10;102067.31;;;8.61;100.00
71774;BME280;59607;52.130;5.430;2023-02-21T04:22:47;102068.25;;;8.60;100.00
71774;BME280;59607;52.130;5.430;2023-02-21T04:25:31;102052.78;;;8.57;100.00
71774;BME280;59607;52.130;5.430;2023-02-21T04:28:01;102057.34;;;8.55;100.00
71774;BME280;59607;52.130;5.430;2023-02-21T04:30:31;102058.97;;;8.56;100.00
71774;BME280;59607;52.130;5.430;2023-02-21T04:32:58;102058.03;;;8.57;100.00
71774;BME280;59607;52.130;5.430;2023-02-21T04:35:24;102040.75;;;8.54;100.00
71774;BME280;59607;52.130;5.430;2023-02-21T04:37:54;102059.06;;;8.54;100.00
71774;BME280;59607;52.130;5.430;2023-02-21T04:40:20;102052.91;;;8.55;100.00
71774;BME280;59607;52.130;5.430;2023-02-21T04:42:47;102058.97;;;8.56;100.00
71774;BME280;59607;52.130;5.430;2023-02-21T04:45:13;102045.78;;;8.57;100.00
71774;BME280;59607;52.130;5.430;2023-02-21T04:47:40;102045.91;;;8.56;100.00
71774;BME280;59607;52.130;5.430;2023-02-21T04:50:06;102050.28;;;8.55;100.00
71774;BME280;59607;52.130;5.430;2023-02-21T04:52:36;102050.28;;;8.55;100.00
71774;BME280;59607;52.130;5.430;2023-02-21T04:55:09;102044.94;;;8.57;100.00
71774;BME280;59607;52.130;5.430;2023-02-21T04:57:39;102049.94;;;8.60;100.00
71774;BME280;59607;52.130;5.430;2023-02-21T05:00:09;102049.81;;;8.61;100.00
71774;BME280;59607;52.130;5.430;2023-02-21T05:02:45;102052.44;;;8.61;100.00
71774;BME280;59607;52.130;5.430;2023-02-21T05:05:13;102059.47;;;8.61;100.00
71774;BME280;59607;52.130;5.430;2023-02-21T05:07:41;102059.47;;;8.61;100.00
71774;BME280;59607;52.130;5.430;2023-02-21T05:10:25;102049.94;;;8.60;100.00
71774;BME280;59607;52.130;5.430;2023-02-21T05:13:13;102057.78;;;8.60;100.00
71774;BME280;59607;52.130;5.430;2023-02-21T05:15:40;102055.16;;;8.60;100.00
71774;BME280;59607;52.130;5.430;2023-02-21T05:18:07;102062.88;;;8.61;100.00
71774;BME280;59607;52.130;5.430;2023-02-21T05:20:34;102064.56;;;8.62;100.00
71774;BME280;59607;52.130;5.430;2023-02-21T05:23:03;102062.88;;;8.61;100.00
71774;BME280;59607;52.130;5.430;2023-02-21T05:25:42;102063.97;;;8.59;100.00
71774;BME280;59607;52.130;5.430;2023-02-21T05:28:08;102067.56;;;8.58;100.00
71774;BME280;59607;52.130;5.430;2023-02-21T05:30:38;102063.25;;;8.57;100.00
71774;BME280;59607;52.130;5.430;2023-02-21T05:33:04;102064.22;;;8.56;100.00
71774;BME280;59607;52.130;5.430;2023-02-21T05:35:31;102062.56;;;8.55;100.00
71774;BME280;59607;52.130;5.430;2023-02-21T05:37:57;102065.19;;;8.55;100.00
71774;BME280;59607;52.130;5.430;2023-02-21T05:40:29;102061.81;;;8.52;100.00
71774;BME280;59607;52.130;5.430;2023-02-21T05:42:55;102059.94;;;8.55;100.00
71774;BME280;59607;52.130;5.430;2023-02-21T05:45:21;102066.00;;;8.55;100.00
71774;BME280;59607;52.130;5.430;2023-02-21T05:47:55;102070.50;;;8.53;100.00
71774;BME280;59607;52.130;5.430;2023-02-21T05:50:25;102062.78;;;8.51;100.00
71774;BME280;59607;52.130;5.430;2023-02-21T05:52:52;102068.00;;;8.51;100.00
71774;BME280;59607;52.130;5.430;2023-02-21T05:55:21;102069.66;;;8.52;100.00
71774;BME280;59607;52.130;5.430;2023-02-21T05:57:47;102070.41;;;8.55;100.00
71774;BME280;59607;52.130;5.430;2023-02-21T06:00:41;102077.06;;;8.59;100.00
71774;BME280;59607;52.130;5.430;2023-02-21T06:03:07;102076.09;;;8.60;100.00
71774;BME280;59607;52.130;5.430;2023-02-21T06:05:38;102071.69;;;8.60;100.00
71774;BME280;59607;52.130;5.430;2023-02-21T06:08:04;102071.09;;;8.57;100.00
71774;BME280;59607;52.130;5.430;2023-02-21T06:10:30;102071.94;;;8.57;100.00
71774;BME280;59607;52.130;5.430;2023-02-21T06:13:00;102070.28;;;8.56;100.00
71774;BME280;59607;52.130;5.430;2023-02-21T06:15:33;102078.94;;;8.57;100.00
71774;BME280;59607;52.130;5.430;2023-02-21T06:18:02;102072.91;;;8.56;100.00
71774;BME280;59607;52.130;5.430;2023-02-21T06:20:32;102070.41;;;8.55;100.00
71774;BME280;59607;52.130;5.430;2023-02-21T06:22:59;102067.78;;;8.55;100.00
71774;BME280;59607;52.130;5.430;2023-02-21T06:25:30;102070.63;;;8.51;100.00
71774;BME280;59607;52.130;5.430;2023-02-21T06:27:58;102069.16;;;8.47;100.00
71774;BME280;59607;52.130;5.430;2023-02-21T06:30:28;102070.94;;;8.47;100.00
71774;BME280;59607;52.130;5.430;2023-02-21T06:32:58;102077.00;;;8.47;100.00
71774;BME280;59607;52.130;5.430;2023-02-21T06:35:25;102069.16;;;8.47;100.00
71774;BME280;59607;52.130;5.430;2023-02-21T06:37:51;102084.63;;;8.50;100.00
71774;BME280;59607;52.130;5.430;2023-02-21T06:40:32;102076.78;;;8.50;100.00
71774;BME280;59607;52.130;5.430;2023-02-21T06:43:03;102077.84;;;8.48;100.00
71774;BME280;59607;52.130;5.430;2023-02-21T06:45:30;102078.66;;;8.48;100.00
71774;BME280;59607;52.130;5.430;2023-02-21T06:48:02;102082.34;;;8.46;100.00
71774;BME280;59607;52.130;5.430;2023-02-21T06:50:32;102077.84;;;8.48;100.00
71774;BME280;59607;52.130;5.430;2023-02-21T06:53:02;102074.28;;;8.49;100.00
71774;BME280;59607;52.130;5.430;2023-02-21T06:55:37;102071.78;;;8.47;100.00
71774;BME280;59607;52.130;5.430;2023-02-21T06:58:09;102075.84;;;8.51;100.00
71774;BME280;59607;52.130;5.430;2023-02-21T07:00:39;102082.84;;;8.51;100.00
71774;BME280;59607;52.130;5.430;2023-02-21T07:03:05;102076.78;;;8.50;100.00
71774;BME280;59607;52.130;5.430;2023-02-21T07:05:46;102086.50;;;8.48;100.00
71774;BME280;59607;52.130;5.430;2023-02-21T07:08:12;102079.50;;;8.49;100.00
71774;BME280;59607;52.130;5.430;2023-02-21T07:10:39;102079.38;;;8.50;100.00
71774;BME280;59607;52.130;5.430;2023-02-21T07:13:05;102080.09;;;8.52;100.00
71774;BME280;59607;52.130;5.430;2023-02-21T07:15:32;102081.69;;;8.55;100.00
71774;BME280;59607;52.130;5.430;2023-02-21T07:17:58;102074.75;;;8.54;100.00
71774;BME280;59607;52.130;5.430;2023-02-21T07:20:24;102076.31;;;8.57;100.00
71774;BME280;59607;52.130;5.430;2023-02-21T07:22:51;102084.91;;;8.59;100.00
71774;BME280;59607;52.130;5.430;2023-02-21T07:25:20;102083.25;;;8.58;100.00
71774;BME280;59607;52.130;5.430;2023-02-21T07:27:53;102074.44;;;8.59;100.00
71774;BME280;59607;52.130;5.430;2023-02-21T07:30:20;102074.69;;;8.56;100.00
71774;BME280;59607;52.130;5.430;2023-02-21T07:32:52;102079.91;;;8.56;100.00
71774;BME280;59607;52.130;5.430;2023-02-21T07:35:18;102082.53;;;8.56;100.00
71774;BME280;59607;52.130;5.430;2023-02-21T07:37:45;102083.25;;;8.58;100.00
71774;BME280;59607;52.130;5.430;2023-02-21T07:40:17;102088.34;;;8.59;100.00
71774;BME280;59607;52.130;5.430;2023-02-21T07:42:44;102087.50;;;8.59;100.00
71774;BME280;59607;52.130;5.430;2023-02-21T07:45:19;102090.97;;;8.59;100.00
71774;BME280;59607;52.130;5.430;2023-02-21T07:47:46;102096.78;;;8.63;100.00
71774;BME280;59607;52.130;5.430;2023-02-21T07:50:17;102088.13;;;8.62;100.00
71774;BME280;59607;52.130;5.430;2023-02-21T07:52:44;102095.00;;;8.63;100.00
71774;BME280;59607;52.130;5.430;2023-02-21T07:55:11;102101.78;;;8.66;100.00
71774;BME280;59607;52.130;5.430;2023-02-21T07:57:52;102095.84;;;8.64;100.00
71774;BME280;59607;52.130;5.430;2023-02-21T08:00:27;102088.00;;;8.64;100.00
71774;BME280;59607;52.130;5.430;2023-02-21T08:02:54;102099.38;;;8.63;100.00
71774;BME280;59607;52.130;5.430;2023-02-21T08:05:23;102098.34;;;8.66;100.00
71774;BME280;59607;52.130;5.430;2023-02-21T08:07:53;102099.06;;;8.68;100.00
71774;BME280;59607;52.130;5.430;2023-02-21T08:10:33;102102.97;;;8.73;100.00
71774;BME280;59607;52.130;5.430;2023-02-21T08:12:59;102100.34;;;8.73;100.00
71774;BME280;59607;52.130;5.430;2023-02-21T08:15:26;102102.97;;;8.73;100.00
71774;BME280;59607;52.130;5.430;2023-02-21T08:17:52;102102.38;;;8.70;100.00
71774;BME280;59607;52.130;5.430;2023-02-21T08:20:19;102094.75;;;8.67;100.00
71774;BME280;59607;52.130;5.430;2023-02-21T08:22:45;102095.84;;;8.64;100.00
71774;BME280;59607;52.130;5.430;2023-02-21T08:25:13;102087.88;;;8.66;100.00
71774;BME280;59607;52.130;5.430;2023-02-21T08:27:44;102087.88;;;8.66;100.00
71774;BME280;59607;52.130;5.430;2023-02-21T08:30:15;102089.41;;;8.68;100.00
71774;BME280;59607;52.130;5.430;2023-02-21T08:32:42;102091.78;;;8.71;100.00
71774;BME280;59607;52.130;5.430;2023-02-21T08:35:13;102089.16;;;8.71;100.00
71774;BME280;59607;52.130;5.430;2023-02-21T08:37:54;102083.00;;;8.72;100.00
71774;BME280;59607;52.130;5.430;2023-02-21T08:40:25;102084.06;;;8.70;100.00
71774;BME280;59607;52.130;5.430;2023-02-21T08:43:00;102082.16;;;8.72;100.00
71774;BME280;59607;52.130;5.430;2023-02-21T08:45:29;102076.56;;;8.76;100.00
71774;BME280;59607;52.130;5.430;2023-02-21T08:47:58;102084.66;;;8.73;100.00
71774;BME280;59607;52.130;5.430;2023-02-21T08:50:28;102090.63;;;8.75;100.00
71774;BME280;59607;52.130;5.430;2023-02-21T08:53:01;102089.78;;;8.75;100.00
71774;BME280;59607;52.130;5.430;2023-02-21T08:55:30;102086.91;;;8.78;100.00
71774;BME280;59607;52.130;5.430;2023-02-21T08:58:06;102081.31;;;8.83;100.00
71774;BME280;59607;52.130;5.430;2023-02-21T09:00:33;102080.50;;;8.82;100.00
71774;BME280;59607;52.130;5.430;2023-02-21T09:03:02;102078.69;;;8.83;100.00
71774;BME280;59607;52.130;5.430;2023-02-21T09:05:30;102079.41;;;8.85;100.00
71774;BME280;59607;52.130;5.430;2023-02-21T09:07:59;102072.97;;;8.89;100.00
71774;BME280;59607;52.130;5.430;2023-02-21T09:10:29;102073.81;;;8.89;100.00
71774;BME280;59607;52.130;5.430;2023-02-21T09:13:03;102071.22;;;8.89;100.00
71774;BME280;59607;52.130;5.430;2023-02-21T09:15:29;102071.31;;;8.88;100.00
71774;BME280;59607;52.130;5.430;2023-02-21T09:17:57;102074.78;;;8.88;100.00
71774;BME280;59607;52.130;5.430;2023-02-21T09:20:25;102064.44;;;8.87;100.00
71774;BME280;59607;52.130;5.430;2023-02-21T09:22:55;102065.25;;;8.87;100.00
71774;BME280;59607;52.130;5.430;2023-02-21T09:25:24;102071.69;;;8.83;100.00
71774;BME280;59607;52.130;5.430;2023-02-21T09:27:53;102062.50;;;8.89;100.00
71774;BME280;59607;52.130;5.430;2023-02-21T09:30:24;102061.34;;;8.93;100.00
71774;BME280;59607;52.130;5.430;2023-02-21T09:32:59;102061.34;;;8.93;100.00
71774;BME280;59607;52.130;5.430;2023-02-21T09:35:25;102063.72;;;8.96;100.00
71774;BME280;59607;52.130;5.430;2023-02-21T09:37:52;102063.00;;;8.94;100.00
71774;BME280;59607;52.130;5.430;2023-02-21T09:43:18;102047.75;;;8.99;100.00
71774;BME280;59607;52.130;5.430;2023-02-21T09:45:53;102048.84;;;8.97;100.00
71774;BME280;59607;52.130;5.430;2023-02-21T09:48:23;102047.66;;;9.01;100.00
71774;BME280;59607;52.130;5.430;2023-02-21T09:50:56;102050.25;;;9.01;100.00
71774;BME280;59607;52.130;5.430;2023-02-21T09:53:34;102047.66;;;9.01;100.00
71774;BME280;59607;52.130;5.430;2023-02-21T09:58:55;102052.50;;;9.06;100.00
71774;BME280;59607;52.130;5.430;2023-02-21T10:10:12;102045.59;;;9.16;100.00
71774;BME280;59607;52.130;5.430;2023-02-21T10:13:09;102049.41;;;9.12;100.00
71774;BME280;59607;52.130;5.430;2023-02-21T10:21:48;102048.91;;;9.18;100.00
71774;BME280;59607;52.130;5.430;2023-02-21T10:24:24;102052.00;;;9.23;100.00
71774;BME280;59607;52.130;5.430;2023-02-21T10:27:02;102045.44;;;9.29;100.00
71774;BME280;59607;52.130;5.430;2023-02-21T10:30:02;102058.53;;;9.29;100.00
71774;BME280;59607;52.130;5.430;2023-02-21T10:32:33;102056.72;;;9.30;100.00
71774;BME280;59607;52.130;5.430;2023-02-21T10:34:59;102054.56;;;9.35;100.00
71774;BME280;59607;52.130;5.430;2023-02-21T10:40:39;102059.22;;;9.31;100.00
71774;BME280;59607;52.130;5.430;2023-02-21T10:43:31;102053.72;;;9.34;100.00
71774;BME280;59607;52.130;5.430;2023-02-21T10:48:42;102054.69;;;9.33;100.00
71774;BME280;59607;52.130;5.430;2023-02-21T10:51:12;102056.13;;;9.37;100.00
71774;BME280;59607;52.130;5.430;2023-02-21T10:53:46;102052.28;;;9.42;100.00
71774;BME280;59607;52.130;5.430;2023-02-21T11:02:03;102056.22;;;9.36;100.00
71774;BME280;59607;52.130;5.430;2023-02-21T11:04:35;102056.22;;;9.36;100.00
71774;BME280;59607;52.130;5.430;2023-02-21T11:07:08;102061.00;;;9.42;100.00
71774;BME280;59607;52.130;5.430;2023-02-21T11:09:49;102051.66;;;9.49;100.00
71774;BME280;59607;52.130;5.430;2023-02-21T11:12:22;102047.84;;;9.54;100.00
71774;BME280;59607;52.130;5.430;2023-02-21T11:15:16;102049.03;;;9.49;100.00
71774;BME280;59607;52.130;5.430;2023-02-21T11:17:43;102044.66;;;9.50;100.00
71774;BME280;59607;52.130;5.430;2023-02-21T11:22:49;102047.38;;;9.48;100.00
71774;BME280;59607;52.130;5.430;2023-02-21T11:25:28;102040.34;;;9.49;100.00
71774;BME280;59607;52.130;5.430;2023-02-21T11:30:36;102043.44;;;9.54;100.00
71774;BME280;59607;52.130;5.430;2023-02-21T11:33:06;102038.31;;;9.53;100.00
71774;BME280;59607;52.130;5.430;2023-02-21T11:35:37;102038.44;;;9.51;100.00
71774;BME280;59607;52.130;5.430;2023-02-21T11:41:20;102036.19;;;9.46;100.00
71774;BME280;59607;52.130;5.430;2023-02-21T11:43:53;102042.53;;;9.44;100.00
71774;BME280;59607;52.130;5.430;2023-02-21T11:46:39;102036.19;;;9.46;100.00
71774;BME280;59607;52.130;5.430;2023-02-21T11:49:24;102041.19;;;9.49;100.00
71774;BME280;59607;52.130;5.430;2023-02-21T11:52:09;102035.09;;;9.49;100.00
71774;BME280;59607;52.130;5.430;2023-02-21T11:54:40;102038.69;;;9.48;100.00
71774;BME280;59607;52.130;5.430;2023-02-21T11:57:34;102025.84;;;9.45;100.00
71774;BME280;59607;52.130;5.430;2023-02-21T12:08:43;102025.38;;;9.40;100.00
71774;BME280;59607;52.130;5.430;2023-02-21T12:11:43;102019.09;;;9.42;100.00
71774;BME280;59607;52.130;5.430;2023-02-21T12:26:24;102017.28;;;9.43;100.00
71774;BME280;59607;52.130;5.430;2023-02-21T12:35:31;102015.13;;;9.48;100.00
71774;BME280;59607;52.130;5.430;2023-02-21T12:44:04;102005.69;;;9.57;100.00
71774;BME280;59607;52.130;5.430;2023-02-21T12:47:19;102001.38;;;9.56;100.00
71774;BME280;59607;52.130;5.430;2023-02-21T12:50:07;101993.78;;;9.53;100.00
71774;BME280;59607;52.130;5.430;2023-02-21T12:52:59;101987.97;;;9.49;100.00
71774;BME280;59607;52.130;5.430;2023-02-21T12:56:00;101986.31;;;9.48;100.00
71774;BME280;59607;52.130;5.430;2023-02-21T12:58:39;101987.97;;;9.49;100.00
71774;BME280;59607;52.130;5.430;2023-02-21T13:01:18;101989.66;;;9.50;100.00
71774;BME280;59607;52.130;5.430;2023-02-21T13:04:12;101995.09;;;9.58;100.00
71774;BME280;59607;52.130;5.430;2023-02-21T13:06:49;101988.38;;;9.66;100.00
71774;BME280;59607;52.130;5.430;2023-02-21T13:09:32;101984.09;;;9.65;100.00
71774;BME280;59607;52.130;5.430;2023-02-21T13:12:07;101981.22;;;9.68;100.00
71774;BME280;59607;52.130;5.430;2023-02-21T13:14:48;101974.44;;;9.65;100.00
71774;BME280;59607;52.130;5.430;2023-02-21T13:17:31;101983.13;;;9.66;100.00
71774;BME280;59607;52.130;5.430;2023-02-21T13:20:21;101982.06;;;9.68;100.00
71774;BME280;59607;52.130;5.430;2023-02-21T13:26:12;101977.44;;;9.60;100.00
71774;BME280;59607;52.130;5.430;2023-02-21T13:28:58;101971.00;;;9.65;100.00
71774;BME280;59607;52.130;5.430;2023-02-21T13:31:34;101964.53;;;9.69;100.00
71774;BME280;59607;52.130;5.430;2023-02-21T13:34:08;101959.53;;;9.66;100.00
71774;BME280;59607;52.130;5.430;2023-02-21T13:36:42;101959.41;;;9.67;100.00
71774;BME280;59607;52.130;5.430;2023-02-21T13:39:29;101959.16;;;9.70;100.00
71774;BME280;59607;52.130;5.430;2023-02-21T13:42:18;101959.03;;;9.72;100.00
71774;BME280;59607;52.130;5.430;2023-02-21T13:45:13;101953.78;;;9.72;100.00
71774;BME280;59607;52.130;5.430;2023-02-21T13:53:25;101949.53;;;9.71;100.00
71774;BME280;59607;52.130;5.430;2023-02-21T13:59:28;101938.50;;;9.77;100.00
71774;BME280;59607;52.130;5.430;2023-02-21T14:01:49;101942.78;;;9.78;100.00
71774;BME280;59607;52.130;5.430;2023-02-21T14:04:58;101945.19;;;9.81;100.00
71774;BME280;59607;52.130;5.430;2023-02-21T14:10:37;101944.06;;;9.84;100.00
71774;BME280;59607;52.130;5.430;2023-02-21T14:13:16;101941.59;;;9.82;100.00
71774;BME280;59607;52.130;5.430;2023-02-21T14:15:46;101939.94;;;9.81;100.00
71774;BME280;59607;52.130;5.430;2023-02-21T14:18:24;101945.97;;;9.82;100.00
71774;BME280;59607;52.130;5.430;2023-02-21T14:21:23;101944.03;;;9.74;100.00
71774;BME280;59607;52.130;5.430;2023-02-21T14:23:56;101942.63;;;9.70;100.00
71774;BME280;59607;52.130;5.430;2023-02-21T14:29:36;101944.84;;;9.74;100.00
71774;BME280;59607;52.130;5.430;2023-02-21T14:32:54;101949.38;;;9.72;100.00
71774;BME280;59607;52.130;5.430;2023-02-21T14:35:42;101936.41;;;9.71;100.00
71774;BME280;59607;52.130;5.430;2023-02-21T14:38:23;101940.56;;;9.73;100.00
71774;BME280;59607;52.130;5.430;2023-02-21T14:40:56;101938.50;;;9.77;100.00
71774;BME280;59607;52.130;5.430;2023-02-21T14:53:01;101932.69;;;9.73;100.00
71774;BME280;59607;52.130;5.430;2023-02-21T14:55:37;101933.53;;;9.74;100.00
71774;BME280;59607;52.130;5.430;2023-02-21T15:03:55;101929.66;;;9.68;100.00
71774;BME280;59607;52.130;5.430;2023-02-21T15:06:25;101925.09;;;9.70;100.00
71774;BME280;59607;52.130;5.430;2023-02-21T15:08:53;101926.06;;;9.69;100.00
71774;BME280;59607;52.130;5.430;2023-02-21T15:11:33;101924.72;;;9.75;100.00
71774;BME280;59607;52.130;5.430;2023-02-21T15:14:23;101922.22;;;9.73;100.00
71774;BME280;59607;52.130;5.430;2023-02-21T15:16:56;101918.34;;;9.68;100.00
71774;BME280;59607;52.130;5.430;2023-02-21T15:22:25;101917.38;;;9.69;100.00
71774;BME280;59607;52.130;5.430;2023-02-21T15:27:51;101917.91;;;9.62;100.00
71774;BME280;59607;52.130;5.430;2023-02-21T15:30:20;101917.31;;;9.59;100.00
71774;BME280;59607;52.130;5.430;2023-02-21T15:32:57;101917.72;;;9.54;100.00
71774;BME280;59607;52.130;5.430;2023-02-21T15:36:16;101913.44;;;9.53;100.00
71774;BME280;59607;52.130;5.430;2023-02-21T15:38:28;101919.88;;;9.49;100.00
71774;BME280;59607;52.130;5.430;2023-02-21T15:41:12;101921.94;;;9.45;100.00
71774;BME280;59607;52.130;5.430;2023-02-21T15:43:49;101913.50;;;9.42;100.00
71774;BME280;59607;52.130;5.430;2023-02-21T15:46:24;101912.28;;;9.46;100.00
71774;BME280;59607;52.130;5.430;2023-02-21T15:48:55;101915.88;;;9.45;100.00